WATT/KOE METAR and TAF weather

Enter ICAO airport designator
Station Type Date Time Source
WATT METAR 2021/08/04 08:00 UTC NOAA

WATT 040800Z 12012KT 9999 SCT017 29/21 Q1012 NOSIG


Station Type Date Time Source
WATT Decoded METAR 2021/08/04 08:00 UTC NOAA

Station name not available
Aug 04, 2021 - 04:00 AM EDT / 2021.08.04 0800 UTC
Wind: from the ESE (120 degrees) at 14 MPH (12 KT):0
Visibility: greater than 7 mile(s):0
Sky conditions: partly cloudy
Temperature: 84 F (29 C)
Dew Point: 69 F (21 C)
Relative Humidity: 62%
Pressure (altimeter): 29.88 in. Hg (1012 hPa)
ob: WATT 040800Z 12012KT 9999 SCT017 29/21 Q1012 NOSIG
cycle: 8

Station Type Date Time Source
WATT TAF 2021/08/04 18:00 UTC NOAA

TAF WATT 041700Z 0418/0518 12006KT 8000 FEW018
BECMG 0501/0503 11015G27KT

Example: see airport list